createdAt,value
2019-03-09T00:00:24.285Z,4.15
2019-03-09T00:02:53.503Z,4.70
2019-03-09T00:05:22.482Z,3.27
2019-03-09T00:07:51.503Z,2.98
2019-03-09T00:10:20.627Z,4.05
2019-03-09T00:12:49.494Z,5.10
2019-03-09T00:15:18.535Z,5.28
2019-03-09T00:17:47.473Z,3.58
2019-03-09T00:20:16.538Z,4.92
2019-03-09T00:22:47.730Z,4.45
2019-03-09T00:25:22.208Z,4.70
2019-03-09T00:28:06.959Z,4.25
2019-03-09T00:30:54.207Z,3.80
2019-03-09T00:33:23.256Z,3.62
2019-03-09T00:35:52.315Z,5.08
2019-03-09T00:38:21.219Z,3.10
2019-03-09T00:40:50.296Z,3.98
2019-03-09T00:43:19.225Z,3.08
2019-03-09T00:45:48.303Z,5.65
2019-03-09T00:48:17.332Z,4.30
2019-03-09T00:50:46.324Z,4.53
2019-03-09T00:53:15.231Z,5.45
2019-03-09T00:58:32.038Z,3.22
2019-03-09T01:01:00.937Z,4.15
2019-03-09T01:03:30.039Z,4.50
2019-03-09T01:05:59.069Z,3.52
2019-03-09T01:08:27.925Z,4.08
2019-03-09T01:10:56.860Z,3.70
2019-03-09T01:13:25.685Z,4.50
2019-03-09T01:15:54.612Z,4.92
2019-03-09T01:18:25.359Z,4.67
2019-03-09T01:20:54.301Z,3.87
2019-03-09T01:23:23.531Z,6.10
2019-03-09T01:25:52.454Z,2.90
2019-03-09T01:28:21.597Z,4.00
2019-03-09T01:30:50.577Z,4.60
2019-03-09T01:33:19.601Z,3.35
2019-03-09T01:35:48.537Z,4.85
2019-03-09T01:38:17.407Z,3.87
2019-03-09T01:40:46.625Z,4.12
2019-03-09T01:43:15.561Z,5.42
2019-03-09T01:45:44.672Z,3.75
2019-03-09T01:48:34.089Z,3.62
2019-03-09T01:51:03.128Z,5.55
2019-03-09T01:53:36.755Z,3.70
2019-03-09T01:56:02.767Z,6.12
2019-03-09T01:58:31.647Z,4.80
2019-03-09T02:01:00.827Z,3.02
2019-03-09T02:03:29.684Z,4.05
2019-03-09T02:05:58.703Z,4.33
2019-03-09T02:08:27.585Z,4.05
2019-03-09T02:10:56.797Z,3.00
2019-03-09T02:13:25.827Z,4.83
2019-03-09T02:15:54.867Z,4.10
2019-03-09T02:18:23.895Z,4.00
2019-03-09T02:20:52.848Z,3.60
2019-03-09T02:23:21.871Z,4.12
2019-03-09T02:25:50.879Z,4.20
2019-03-09T02:28:19.832Z,5.12
2019-03-09T02:30:48.740Z,4.60
2019-03-09T02:33:17.866Z,5.03
2019-03-09T02:35:46.755Z,3.87
2019-03-09T02:38:26.222Z,4.08
2019-03-09T02:40:55.083Z,3.27
2019-03-09T02:43:23.937Z,3.62
2019-03-09T02:45:53.059Z,4.00
2019-03-09T02:48:22.116Z,4.40
2019-03-09T02:50:57.447Z,3.08
2019-03-09T02:53:27.305Z,2.80
2019-03-09T02:55:56.533Z,4.53
2019-03-09T02:58:25.702Z,4.20
2019-03-09T03:01:29.079Z,2.90
2019-03-09T03:03:58.046Z,5.40
2019-03-09T03:06:27.127Z,4.00
2019-03-09T03:08:56.171Z,3.33
2019-03-09T03:11:25.163Z,4.65
2019-03-09T03:13:54.276Z,3.27
2019-03-09T03:16:23.212Z,4.40
2019-03-09T03:18:52.219Z,3.33
2019-03-09T03:21:21.224Z,3.70
2019-03-09T03:23:50.267Z,4.15
2019-03-09T03:26:19.160Z,4.10
2019-03-09T03:28:47.960Z,3.02
2019-03-09T03:31:16.833Z,3.77
2019-03-09T03:33:45.974Z,3.80
2019-03-09T03:36:15.070Z,2.83
2019-03-09T03:38:44.252Z,3.65
2019-03-09T03:41:13.373Z,3.67
2019-03-09T03:43:42.438Z,2.95
2019-03-09T03:46:11.365Z,3.35
2019-03-09T03:48:40.424Z,3.58
2019-03-09T03:51:09.406Z,3.10
2019-03-09T03:53:38.538Z,3.47
2019-03-09T03:56:07.433Z,3.00
2019-03-09T03:58:36.561Z,2.42
2019-03-09T04:01:05.484Z,3.52
2019-03-09T04:03:34.599Z,2.55
2019-03-09T04:06:03.579Z,3.25
2019-03-09T04:08:32.528Z,2.45
2019-03-09T04:11:01.515Z,2.40
2019-03-09T04:13:30.482Z,2.33
2019-03-09T04:15:59.602Z,1.80
2019-03-09T04:18:28.526Z,1.62
2019-03-09T04:20:57.593Z,1.98
2019-03-09T04:23:26.576Z,2.90
2019-03-09T04:25:55.568Z,2.35
2019-03-09T04:28:24.538Z,3.62
2019-03-09T04:30:53.435Z,3.75
2019-03-09T04:33:22.647Z,1.55
2019-03-09T04:35:51.690Z,2.12
2019-03-09T04:38:20.579Z,1.45
2019-03-09T04:40:49.489Z,1.65
2019-03-09T04:43:18.391Z,2.42
2019-03-09T04:45:47.409Z,1.30
2019-03-09T04:48:16.294Z,2.50
2019-03-09T04:50:45.252Z,1.52
2019-03-09T04:53:14.159Z,2.12
2019-03-09T04:55:43.020Z,1.25
2019-03-09T04:58:11.842Z,1.15
2019-03-09T05:00:40.834Z,1.75
2019-03-09T05:03:28.850Z,1.85
2019-03-09T05:05:57.854Z,1.35
2019-03-09T05:09:14.626Z,2.22
2019-03-09T05:11:43.759Z,2.25
2019-03-09T05:14:24.049Z,1.70
2019-03-09T05:19:21.144Z,2.70
2019-03-09T05:21:49.993Z,1.12
2019-03-09T05:24:18.919Z,1.57
2019-03-09T05:26:48.021Z,2.22
2019-03-09T05:29:16.962Z,1.22
2019-03-09T05:31:46.034Z,1.15
2019-03-09T05:34:15.073Z,1.15
2019-03-09T05:36:44.040Z,0.95
2019-03-09T05:39:12.961Z,2.45
2019-03-09T05:41:42.024Z,1.15
2019-03-09T05:44:11.046Z,1.17
2019-03-09T05:46:40.055Z,1.00
2019-03-09T05:49:09.136Z,1.00
2019-03-09T05:51:38.048Z,1.40
2019-03-09T05:54:07.114Z,0.93
2019-03-09T05:56:36.119Z,0.85
2019-03-09T05:59:05.038Z,0.75
2019-03-09T06:01:33.833Z,1.45
2019-03-09T06:04:02.956Z,0.70
2019-03-09T06:06:31.970Z,1.10
2019-03-09T06:09:00.875Z,1.52
2019-03-09T06:11:30.124Z,1.02
2019-03-09T06:13:59.202Z,1.00
2019-03-09T06:16:28.193Z,1.15
2019-03-09T06:18:57.263Z,1.07
2019-03-09T06:21:26.262Z,0.88
2019-03-09T06:23:55.327Z,1.35
2019-03-09T06:26:24.201Z,1.90
2019-03-09T06:28:53.073Z,1.07
2019-03-09T06:31:22.367Z,1.37
2019-03-09T06:33:53.555Z,1.40
2019-03-09T06:36:59.727Z,2.20
2019-03-09T06:39:35.912Z,1.40
2019-03-09T06:42:43.377Z,2.47
2019-03-09T06:45:14.284Z,2.42
2019-03-09T06:47:43.082Z,2.00
2019-03-09T06:50:14.298Z,2.00
2019-03-09T06:52:43.372Z,1.95
2019-03-09T06:55:12.802Z,2.25
2019-03-09T06:57:41.668Z,2.87
2019-03-09T07:00:34.456Z,2.12
2019-03-09T07:03:03.378Z,2.10
2019-03-09T07:05:32.456Z,2.90
2019-03-09T07:08:01.850Z,3.00
2019-03-09T07:10:30.960Z,2.23
2019-03-09T07:13:00.098Z,2.47
2019-03-09T07:15:47.660Z,2.95
2019-03-09T07:18:21.809Z,2.52
2019-03-09T07:20:50.604Z,2.17
2019-03-09T07:23:19.595Z,1.92
2019-03-09T07:28:36.307Z,3.58
2019-03-09T07:31:05.159Z,1.92
2019-03-09T07:33:34.160Z,3.75
2019-03-09T07:36:03.222Z,3.58
2019-03-09T07:38:32.352Z,3.50
2019-03-09T07:41:01.614Z,2.65
2019-03-09T07:43:30.631Z,4.08
2019-03-09T07:45:59.679Z,3.58
2019-03-09T07:48:28.811Z,3.35
2019-03-09T07:51:16.855Z,3.22
2019-03-09T07:53:45.765Z,2.02
2019-03-09T07:56:14.647Z,2.92
2019-03-09T07:58:43.440Z,2.10
2019-03-09T08:01:12.451Z,3.12
2019-03-09T08:03:41.467Z,3.25
2019-03-09T08:06:10.321Z,2.30
2019-03-09T08:08:39.310Z,3.40
2019-03-09T08:11:08.361Z,3.83
2019-03-09T08:13:37.232Z,4.25
2019-03-09T08:16:06.228Z,3.02
2019-03-09T08:18:35.083Z,2.17
2019-03-09T08:21:03.933Z,4.20
2019-03-09T08:23:32.902Z,3.92
2019-03-09T08:26:01.873Z,3.30
2019-03-09T08:28:30.823Z,3.58
2019-03-09T08:30:59.691Z,4.00
2019-03-09T08:33:30.783Z,5.28
2019-03-09T08:35:59.407Z,4.58
2019-03-09T08:38:28.430Z,6.10
2019-03-09T08:40:57.447Z,5.00
2019-03-09T08:43:26.432Z,5.62
2019-03-09T08:45:55.571Z,6.28
2019-03-09T08:48:24.405Z,3.95
2019-03-09T08:50:53.272Z,3.27
2019-03-09T08:53:22.096Z,6.33
2019-03-09T08:55:50.964Z,6.03
2019-03-09T08:58:19.757Z,3.47
2019-03-09T09:00:48.781Z,4.80
2019-03-09T09:03:17.775Z,5.10
2019-03-09T09:05:46.782Z,8.05
2019-03-09T09:08:15.776Z,5.12
2019-03-09T09:10:44.620Z,4.08
2019-03-09T09:13:13.603Z,8.18
2019-03-09T09:15:42.572Z,4.85
2019-03-09T09:18:11.679Z,5.70
2019-03-09T09:20:40.589Z,6.03
2019-03-09T09:23:09.703Z,4.62
2019-03-09T09:25:38.938Z,3.12
2019-03-09T09:28:08.105Z,5.62
2019-03-09T09:30:37.090Z,5.40
2019-03-09T09:33:06.251Z,6.15
2019-03-09T09:35:35.301Z,5.03
2019-03-09T09:38:04.224Z,6.62
2019-03-09T09:40:33.398Z,4.92
2019-03-09T09:43:02.391Z,4.40
2019-03-09T09:45:31.210Z,6.03
2019-03-09T09:48:00.121Z,5.55
2019-03-09T09:50:29.138Z,6.35
2019-03-09T09:52:58.228Z,4.97
2019-03-09T09:55:27.377Z,5.87
2019-03-09T09:57:56.396Z,9.05
2019-03-09T10:00:34.783Z,6.90
2019-03-09T10:03:03.625Z,5.83
2019-03-09T10:05:32.643Z,5.60
2019-03-09T10:08:01.511Z,7.08
2019-03-09T10:10:30.402Z,7.10
2019-03-09T10:13:00.323Z,6.97
2019-03-09T10:15:29.370Z,6.97
2019-03-09T10:17:58.477Z,8.63
2019-03-09T10:20:27.555Z,5.55
2019-03-09T10:23:04.196Z,8.65
2019-03-09T10:25:27.404Z,7.60
2019-03-09T10:27:56.293Z,6.35
2019-03-09T10:30:25.525Z,7.45
2019-03-09T10:32:54.557Z,5.78
2019-03-09T10:35:23.530Z,4.15
2019-03-09T10:37:52.569Z,5.75
2019-03-09T10:40:21.558Z,4.75
2019-03-09T10:42:50.599Z,8.33
2019-03-09T10:45:19.727Z,5.65
2019-03-09T10:47:48.714Z,5.50
2019-03-09T10:50:17.589Z,7.33
2019-03-09T10:52:46.700Z,5.47
2019-03-09T10:55:17.738Z,6.90
2019-03-09T10:57:46.595Z,8.33
2019-03-09T11:00:37.679Z,6.33
2019-03-09T11:03:06.822Z,5.72
2019-03-09T11:05:35.811Z,5.72
2019-03-09T11:08:07.744Z,7.87
2019-03-09T11:10:36.792Z,6.17
2019-03-09T11:13:05.813Z,6.33
2019-03-09T11:15:34.904Z,8.00
2019-03-09T11:18:03.890Z,5.25
2019-03-09T11:20:32.856Z,6.55
2019-03-09T11:23:01.814Z,4.15
2019-03-09T11:25:31.071Z,5.75
2019-03-09T11:28:08.860Z,7.45
2019-03-09T11:30:37.798Z,5.87
2019-03-09T11:33:06.780Z,7.53
2019-03-09T11:35:35.916Z,6.55
2019-03-09T11:38:04.917Z,5.08
2019-03-09T11:40:33.986Z,7.67
2019-03-09T11:43:02.921Z,5.50
2019-03-09T11:45:31.928Z,5.05
2019-03-09T11:48:00.971Z,7.53
2019-03-09T11:50:30.175Z,4.40
2019-03-09T11:52:59.022Z,4.40
2019-03-09T11:58:15.923Z,5.20
2019-03-09T12:00:45.492Z,4.20
2019-03-09T12:03:15.284Z,4.70
2019-03-09T12:05:44.062Z,4.35
2019-03-09T12:08:12.980Z,6.55
2019-03-09T12:10:42.062Z,3.52
2019-03-09T12:13:11.128Z,5.28
2019-03-09T12:15:40.102Z,5.58
2019-03-09T12:18:09.341Z,3.83
2019-03-09T12:20:38.170Z,6.60
2019-03-09T12:23:21.189Z,4.67
2019-03-09T12:25:50.160Z,5.17
2019-03-09T12:28:19.202Z,5.40
2019-03-09T12:30:48.126Z,6.25
2019-03-09T12:33:17.194Z,4.08
2019-03-09T12:35:46.169Z,4.58
2019-03-09T12:38:15.141Z,8.00
2019-03-09T12:40:44.125Z,4.50
2019-03-09T12:43:12.924Z,5.90
2019-03-09T12:45:41.814Z,4.42
2019-03-09T12:48:10.763Z,3.92
2019-03-09T12:50:39.826Z,4.67
2019-03-09T12:53:08.692Z,5.78
2019-03-09T12:55:37.808Z,3.12
2019-03-09T12:58:06.809Z,5.42
2019-03-09T13:00:35.733Z,4.75
2019-03-09T13:03:04.659Z,4.75
2019-03-09T13:05:33.575Z,5.45
2019-03-09T13:08:02.485Z,4.70
2019-03-09T13:10:31.421Z,2.90
2019-03-09T13:13:01.289Z,3.15
2019-03-09T13:15:30.414Z,4.45
2019-03-09T13:17:59.471Z,2.60
2019-03-09T13:20:28.432Z,3.40
2019-03-09T13:22:57.370Z,2.75
2019-03-09T13:25:26.486Z,3.75
2019-03-09T13:27:55.477Z,3.85
2019-03-09T13:30:24.459Z,3.75
2019-03-09T13:32:53.448Z,4.05
2019-03-09T13:35:22.508Z,3.55
2019-03-09T13:37:51.645Z,2.72
2019-03-09T13:40:20.570Z,3.40
2019-03-09T13:42:49.636Z,3.83
2019-03-09T13:45:18.595Z,3.27
2019-03-09T13:47:47.484Z,3.08
2019-03-09T13:50:16.612Z,3.83
2019-03-09T13:52:45.589Z,2.30
2019-03-09T13:55:14.705Z,4.33
2019-03-09T13:57:43.653Z,3.83
2019-03-09T14:00:14.028Z,3.98
2019-03-09T14:05:10.883Z,2.83
2019-03-09T14:07:40.068Z,3.15
2019-03-09T14:10:10.164Z,4.17
2019-03-09T14:12:39.250Z,6.10
2019-03-09T14:15:09.808Z,2.77
2019-03-09T14:17:38.781Z,3.10
2019-03-09T14:20:08.515Z,3.45
2019-03-09T14:22:37.844Z,2.60
2019-03-09T14:25:07.059Z,3.00
2019-03-09T14:27:35.841Z,2.33
2019-03-09T14:30:05.500Z,2.92
2019-03-09T14:32:34.605Z,3.90
2019-03-09T14:35:04.071Z,2.67
2019-03-09T14:37:32.897Z,2.80
2019-03-09T14:40:01.774Z,3.45
2019-03-09T14:42:30.867Z,2.50
2019-03-09T14:44:59.961Z,3.95
2019-03-09T14:47:28.847Z,2.92
2019-03-09T14:49:57.850Z,4.40
2019-03-09T14:52:26.966Z,4.08
2019-03-09T14:54:55.969Z,4.85
2019-03-09T14:57:24.971Z,4.03
2019-03-09T14:59:54.051Z,7.62
2019-03-09T15:02:22.988Z,3.67
2019-03-09T15:04:52.046Z,2.90
2019-03-09T15:07:21.038Z,2.85
2019-03-09T15:09:50.028Z,4.85
2019-03-09T15:12:19.006Z,5.90
2019-03-09T15:14:48.047Z,2.98
2019-03-09T15:17:17.099Z,3.08
2019-03-09T15:19:45.965Z,4.80
2019-03-09T15:22:14.751Z,2.60
2019-03-09T15:24:43.794Z,5.10
2019-03-09T15:27:12.761Z,2.58
2019-03-09T15:29:41.611Z,4.72
2019-03-09T15:32:10.702Z,2.10
2019-03-09T15:34:39.936Z,2.52
2019-03-09T15:37:08.858Z,2.77
2019-03-09T15:39:37.961Z,3.17
2019-03-09T15:42:06.984Z,4.75
2019-03-09T15:44:35.898Z,4.12
2019-03-09T15:47:05.965Z,5.37
2019-03-09T15:49:34.928Z,4.28
2019-03-09T15:52:03.951Z,3.90
2019-03-09T15:54:33.298Z,4.53
2019-03-09T15:57:02.297Z,6.65
2019-03-09T15:59:31.277Z,5.35
2019-03-09T16:02:07.964Z,5.28
2019-03-09T16:04:36.889Z,3.75
2019-03-09T16:07:07.406Z,5.87
2019-03-09T16:09:36.271Z,6.35
2019-03-09T16:12:05.307Z,5.45
2019-03-09T16:14:34.432Z,5.72
2019-03-09T16:17:06.865Z,4.35
2019-03-09T16:19:35.894Z,7.15
2019-03-09T16:22:05.401Z,5.72
2019-03-09T16:24:34.432Z,3.62
2019-03-09T16:27:03.549Z,4.12
2019-03-09T16:29:32.477Z,2.98
2019-03-09T16:32:02.476Z,5.30
2019-03-09T16:34:31.477Z,4.37
2019-03-09T16:37:00.507Z,4.30
2019-03-09T16:39:29.456Z,4.40
2019-03-09T16:41:58.496Z,4.47
2019-03-09T16:44:27.524Z,5.40
2019-03-09T16:46:56.670Z,6.00
2019-03-09T16:49:25.525Z,4.85
2019-03-09T16:51:54.626Z,4.30
2019-03-09T16:54:23.583Z,3.40
2019-03-09T16:56:52.587Z,4.53
2019-03-09T16:59:21.588Z,5.53
2019-03-09T17:01:50.669Z,4.28
2019-03-09T17:04:19.625Z,4.53
2019-03-09T17:06:48.775Z,3.00
2019-03-09T17:09:17.688Z,1.82
2019-03-09T17:11:46.690Z,2.22
2019-03-09T17:14:15.632Z,5.03
2019-03-09T17:16:44.641Z,3.12
2019-03-09T17:19:13.616Z,4.40
2019-03-09T17:21:42.675Z,2.47
2019-03-09T17:24:11.639Z,3.33
2019-03-09T17:26:40.687Z,3.25
2019-03-09T17:29:09.520Z,1.98
2019-03-09T17:31:38.559Z,2.98
2019-03-09T17:34:07.746Z,3.30
2019-03-09T17:36:36.817Z,2.10
2019-03-09T17:39:26.839Z,2.37
2019-03-09T17:41:55.704Z,1.72
2019-03-09T17:44:24.497Z,3.05
2019-03-09T17:46:53.622Z,3.27
2019-03-09T17:49:22.607Z,2.70
2019-03-09T17:51:51.725Z,3.80
2019-03-09T17:54:20.552Z,3.17
2019-03-09T17:56:49.555Z,2.77
2019-03-09T17:59:18.593Z,2.35
2019-03-09T18:01:47.475Z,1.98
2019-03-09T18:04:16.491Z,3.65
2019-03-09T18:06:45.392Z,2.12
2019-03-09T18:09:14.301Z,2.77
2019-03-09T18:11:43.321Z,1.50
2019-03-09T18:14:12.339Z,3.25
2019-03-09T18:16:41.369Z,2.50
2019-03-09T18:19:10.239Z,2.35
2019-03-09T18:21:39.163Z,3.15
2019-03-09T18:24:08.129Z,3.30
2019-03-09T18:26:37.105Z,5.62
2019-03-09T18:29:06.057Z,4.03
2019-03-09T18:31:36.287Z,4.62
2019-03-09T18:34:05.211Z,4.97
2019-03-09T18:36:35.927Z,4.33
2019-03-09T18:39:05.523Z,4.62
2019-03-09T18:41:34.587Z,4.42
2019-03-09T18:44:03.565Z,3.05
2019-03-09T18:46:32.493Z,4.22
2019-03-09T18:49:01.498Z,3.35
2019-03-09T18:51:30.633Z,2.25
2019-03-09T18:53:59.585Z,2.72
2019-03-09T18:56:28.621Z,3.40
2019-03-09T18:58:57.651Z,3.20
2019-03-09T19:01:26.628Z,4.30
2019-03-09T19:03:55.776Z,4.85
2019-03-09T19:06:24.800Z,2.45
2019-03-09T19:08:53.706Z,3.87
2019-03-09T19:11:22.803Z,5.10
2019-03-09T19:13:51.799Z,3.55
2019-03-09T19:16:20.699Z,2.92
2019-03-09T19:18:49.622Z,4.78
2019-03-09T19:21:39.290Z,5.25
2019-03-09T19:24:08.384Z,2.47
2019-03-09T19:26:37.252Z,4.37
2019-03-09T19:29:06.220Z,3.12
2019-03-09T19:31:35.135Z,5.60
2019-03-09T19:34:04.173Z,6.47
2019-03-09T19:36:33.156Z,3.40
2019-03-09T19:39:02.092Z,3.55
2019-03-09T19:41:31.176Z,4.42
2019-03-09T19:44:00.233Z,4.62
2019-03-09T19:46:29.127Z,4.53
2019-03-09T19:48:58.158Z,2.80
2019-03-09T19:51:27.149Z,4.70
2019-03-09T19:53:56.159Z,5.62
2019-03-09T19:56:25.023Z,5.37
2019-03-09T19:58:53.906Z,4.42
2019-03-09T20:01:22.923Z,4.03
2019-03-09T20:03:51.960Z,4.47
2019-03-09T20:06:20.868Z,4.62
2019-03-09T20:08:49.898Z,4.60
2019-03-09T20:11:18.776Z,3.35
2019-03-09T20:13:47.689Z,4.15
2019-03-09T20:16:16.610Z,2.80
2019-03-09T20:18:45.596Z,4.67
2019-03-09T20:21:14.657Z,4.90
2019-03-09T20:23:43.537Z,2.02
2019-03-09T20:26:12.561Z,3.62
2019-03-09T20:28:41.357Z,4.25
2019-03-09T20:31:10.451Z,4.03
2019-03-09T20:33:39.368Z,4.17
2019-03-09T20:36:08.469Z,6.37
2019-03-09T20:38:37.770Z,4.90
2019-03-09T20:41:06.737Z,3.67
2019-03-09T20:43:35.816Z,2.65
2019-03-09T20:46:04.704Z,3.55
2019-03-09T20:48:33.766Z,2.98
2019-03-09T20:51:03.648Z,4.90
2019-03-09T20:53:32.586Z,2.25
2019-03-09T20:56:01.494Z,4.67
2019-03-09T20:58:30.507Z,2.75
2019-03-09T21:00:59.405Z,3.77
2019-03-09T21:03:28.328Z,3.90
2019-03-09T21:05:57.253Z,5.08
2019-03-09T21:11:04.166Z,3.75
2019-03-09T21:13:32.919Z,4.33
2019-03-09T21:16:01.907Z,2.83
2019-03-09T21:18:30.953Z,2.90
2019-03-09T21:20:59.941Z,5.58
2019-03-09T21:23:28.945Z,3.27
2019-03-09T21:25:57.841Z,4.67
2019-03-09T21:28:26.673Z,5.53
2019-03-09T21:30:55.648Z,4.42
2019-03-09T21:33:24.486Z,3.95
2019-03-09T21:35:53.774Z,4.62
2019-03-09T21:38:23.081Z,4.20
2019-03-09T21:40:51.972Z,3.60
2019-03-09T21:43:21.018Z,3.67
2019-03-09T21:45:50.119Z,5.03
2019-03-09T21:48:19.048Z,4.17
2019-03-09T21:50:47.931Z,4.80
2019-03-09T21:53:17.063Z,4.22
2019-03-09T21:55:46.056Z,6.50
2019-03-09T21:58:15.163Z,5.85
2019-03-09T22:00:44.178Z,4.08
2019-03-09T22:03:13.174Z,5.67
2019-03-09T22:05:42.111Z,5.65
2019-03-09T22:08:10.977Z,6.62
2019-03-09T22:10:40.240Z,4.00
2019-03-09T22:13:09.248Z,6.78
2019-03-09T22:15:38.280Z,4.30
2019-03-09T22:18:07.237Z,4.20
2019-03-09T22:20:36.285Z,5.62
2019-03-09T22:23:24.300Z,5.22
2019-03-09T22:25:53.355Z,6.20
2019-03-09T22:28:22.195Z,9.60
2019-03-09T22:30:51.009Z,4.65
2019-03-09T22:33:19.914Z,4.70
2019-03-09T22:35:49.051Z,3.92
2019-03-09T22:38:18.067Z,4.87
2019-03-09T22:40:47.087Z,4.42
2019-03-09T22:43:15.957Z,5.47
2019-03-09T22:45:44.827Z,6.28
2019-03-09T22:48:14.465Z,4.30
2019-03-09T22:51:02.534Z,6.55
2019-03-09T22:53:31.485Z,5.72
2019-03-09T22:56:00.501Z,4.95
2019-03-09T22:58:29.496Z,4.67
2019-03-09T23:03:34.232Z,4.75
2019-03-09T23:06:03.248Z,5.45
2019-03-09T23:08:32.250Z,5.90
2019-03-09T23:11:01.161Z,4.78
2019-03-09T23:13:30.123Z,4.87
2019-03-09T23:15:59.350Z,6.17
2019-03-09T23:18:28.591Z,4.37
2019-03-09T23:20:57.570Z,6.33
2019-03-09T23:23:26.653Z,2.65
2019-03-09T23:25:55.651Z,5.47
2019-03-09T23:28:24.742Z,5.37
2019-03-09T23:30:54.562Z,6.08
2019-03-09T23:33:23.741Z,3.92
2019-03-09T23:35:52.740Z,6.58
2019-03-09T23:38:21.674Z,5.72
2019-03-09T23:40:50.794Z,5.37
2019-03-09T23:43:19.684Z,4.30
2019-03-09T23:45:48.710Z,5.67
2019-03-09T23:48:17.689Z,5.67
2019-03-09T23:50:46.583Z,3.65
2019-03-09T23:53:15.809Z,5.00
2019-03-09T23:56:03.776Z,4.42
2019-03-09T23:58:32.870Z,6.83
